sensor_id;sensor_type;location;lat;lon;timestamp;pressure;altitude;pressure_sealevel;temperature;humidity
10366;BME280;5229;41.820;23.490;2022-11-20T00:01:05;89663.06;;;16.91;60.28
10366;BME280;5229;41.820;23.490;2022-11-20T00:03:32;89660.88;;;16.93;59.87
10366;BME280;5229;41.820;23.490;2022-11-20T00:05:59;89672.03;;;16.90;60.13
10366;BME280;5229;41.820;23.490;2022-11-20T00:08:26;89665.16;;;16.82;60.54
10366;BME280;5229;41.820;23.490;2022-11-20T00:10:53;89675.66;;;16.82;59.96
10366;BME280;5229;41.820;23.490;2022-11-20T00:13:20;89663.59;;;16.78;60.02
10366;BME280;5229;41.820;23.490;2022-11-20T00:15:48;89671.38;;;16.74;60.60
10366;BME280;5229;41.820;23.490;2022-11-20T00:18:15;89660.03;;;16.67;59.95
10366;BME280;5229;41.820;23.490;2022-11-20T00:20:42;89664.50;;;16.66;60.13
10366;BME280;5229;41.820;23.490;2022-11-20T00:23:09;89661.13;;;16.66;59.98
10366;BME280;5229;41.820;23.490;2022-11-20T00:25:35;89664.50;;;16.66;59.97
10366;BME280;5229;41.820;23.490;2022-11-20T00:28:03;89663.59;;;16.59;59.90
10366;BME280;5229;41.820;23.490;2022-11-20T00:30:29;89662.31;;;16.49;59.86
10366;BME280;5229;41.820;23.490;2022-11-20T00:32:58;89650.88;;;16.38;60.67
10366;BME280;5229;41.820;23.490;2022-11-20T00:35:24;89641.38;;;16.30;60.39
10366;BME280;5229;41.820;23.490;2022-11-20T00:37:51;89632.72;;;16.26;60.57
10366;BME280;5229;41.820;23.490;2022-11-20T00:40:18;89628.16;;;16.23;60.10
10366;BME280;5229;41.820;23.490;2022-11-20T00:42:45;89616.53;;;16.21;60.26
10366;BME280;5229;41.820;23.490;2022-11-20T00:45:12;89620.59;;;16.18;59.76
10366;BME280;5229;41.820;23.490;2022-11-20T00:47:39;89631.75;;;16.15;60.42
10366;BME280;5229;41.820;23.490;2022-11-20T00:50:08;89650.00;;;16.12;60.11
10366;BME280;5229;41.820;23.490;2022-11-20T00:52:35;89647.31;;;16.08;59.10
10366;BME280;5229;41.820;23.490;2022-11-20T00:55:02;89647.47;;;16.15;58.96
10366;BME280;5229;41.820;23.490;2022-11-20T00:57:29;89646.47;;;16.23;58.62
10366;BME280;5229;41.820;23.490;2022-11-20T00:59:55;89628.28;;;16.30;57.46
10366;BME280;5229;41.820;23.490;2022-11-20T01:02:22;89621.13;;;16.46;57.53
10366;BME280;5229;41.820;23.490;2022-11-20T01:04:49;89631.03;;;16.56;56.33
10366;BME280;5229;41.820;23.490;2022-11-20T01:07:17;89629.00;;;16.69;56.23
10366;BME280;5229;41.820;23.490;2022-11-20T01:09:44;89621.34;;;16.79;55.55
10366;BME280;5229;41.820;23.490;2022-11-20T01:12:11;89624.09;;;16.86;55.59
10366;BME280;5229;41.820;23.490;2022-11-20T01:14:38;89639.91;;;16.93;54.89
10366;BME280;5229;41.820;23.490;2022-11-20T01:17:04;89631.06;;;17.01;55.50
10366;BME280;5229;41.820;23.490;2022-11-20T01:19:31;89625.13;;;17.04;55.01
10366;BME280;5229;41.820;23.490;2022-11-20T01:21:58;89627.38;;;17.06;54.87
10366;BME280;5229;41.820;23.490;2022-11-20T01:24:26;89614.78;;;17.15;54.93
10366;BME280;5229;41.820;23.490;2022-11-20T01:26:53;89617.13;;;17.20;53.99
10366;BME280;5229;41.820;23.490;2022-11-20T01:29:21;89613.91;;;17.30;53.94
10366;BME280;5229;41.820;23.490;2022-11-20T01:31:48;89604.97;;;17.34;53.68
10366;BME280;5229;41.820;23.490;2022-11-20T01:34:17;89603.91;;;17.39;53.25
10366;BME280;5229;41.820;23.490;2022-11-20T01:36:45;89591.66;;;17.43;53.15
10366;BME280;5229;41.820;23.490;2022-11-20T01:39:14;89598.03;;;17.45;52.80
10366;BME280;5229;41.820;23.490;2022-11-20T01:41:44;89598.09;;;17.49;52.84
10366;BME280;5229;41.820;23.490;2022-11-20T01:44:47;89580.41;;;17.42;53.61
10366;BME280;5229;41.820;23.490;2022-11-20T01:47:17;89575.44;;;17.37;53.40
10366;BME280;5229;41.820;23.490;2022-11-20T01:49:49;89578.06;;;17.37;53.65
10366;BME280;5229;41.820;23.490;2022-11-20T01:52:20;89581.38;;;17.34;53.65
10366;BME280;5229;41.820;23.490;2022-11-20T01:54:52;89565.97;;;17.29;53.59
10366;BME280;5229;41.820;23.490;2022-11-20T01:57:25;89557.34;;;17.29;53.20
10366;BME280;5229;41.820;23.490;2022-11-20T02:00:00;89561.16;;;17.31;52.85
10366;BME280;5229;41.820;23.490;2022-11-20T02:02:29;89569.41;;;17.33;52.50
10366;BME280;5229;41.820;23.490;2022-11-20T02:05:02;89564.56;;;17.35;53.27
10366;BME280;5229;41.820;23.490;2022-11-20T02:07:32;89551.41;;;17.32;53.06
10366;BME280;5229;41.820;23.490;2022-11-20T02:09:59;89561.44;;;17.26;53.54
10366;BME280;5229;41.820;23.490;2022-11-20T02:12:27;89547.88;;;17.21;53.84
10366;BME280;5229;41.820;23.490;2022-11-20T02:15:12;89545.59;;;17.19;53.25
10366;BME280;5229;41.820;23.490;2022-11-20T02:17:39;89555.28;;;17.15;53.73
10366;BME280;5229;41.820;23.490;2022-11-20T02:20:06;89536.53;;;17.13;53.63
10366;BME280;5229;41.820;23.490;2022-11-20T02:22:38;89553.38;;;17.12;53.12
10366;BME280;5229;41.820;23.490;2022-11-20T02:25:10;89538.44;;;17.16;52.77
10366;BME280;5229;41.820;23.490;2022-11-20T02:27:37;89524.66;;;17.19;52.50
10366;BME280;5229;41.820;23.490;2022-11-20T02:30:06;89537.81;;;17.23;52.04
10366;BME280;5229;41.820;23.490;2022-11-20T02:32:35;89535.19;;;17.23;52.49
10366;BME280;5229;41.820;23.490;2022-11-20T02:35:07;89531.84;;;17.26;52.51
10366;BME280;5229;41.820;23.490;2022-11-20T02:37:36;89521.31;;;17.22;53.00
10366;BME280;5229;41.820;23.490;2022-11-20T02:40:04;89527.63;;;17.18;53.23
10366;BME280;5229;41.820;23.490;2022-11-20T02:42:33;89508.81;;;17.12;53.90
10366;BME280;5229;41.820;23.490;2022-11-20T02:45:00;89542.00;;;17.01;54.01
10366;BME280;5229;41.820;23.490;2022-11-20T02:47:26;89547.09;;;16.91;54.62
10366;BME280;5229;41.820;23.490;2022-11-20T02:49:53;89538.00;;;16.85;54.93
10366;BME280;5229;41.820;23.490;2022-11-20T02:52:20;89520.72;;;16.80;54.58
10366;BME280;5229;41.820;23.490;2022-11-20T02:54:47;89527.34;;;16.74;55.07
10366;BME280;5229;41.820;23.490;2022-11-20T02:57:13;89551.56;;;16.68;55.41
10366;BME280;5229;41.820;23.490;2022-11-20T02:59:42;89536.16;;;16.63;55.55
10366;BME280;5229;41.820;23.490;2022-11-20T03:02:09;89525.25;;;16.57;56.18
10366;BME280;5229;41.820;23.490;2022-11-20T03:04:35;89531.50;;;16.53;55.96
10366;BME280;5229;41.820;23.490;2022-11-20T03:07:03;89521.03;;;16.53;56.36
10366;BME280;5229;41.820;23.490;2022-11-20T03:09:30;89524.06;;;16.55;56.03
10366;BME280;5229;41.820;23.490;2022-11-20T03:11:57;89531.16;;;16.54;56.94
10366;BME280;5229;41.820;23.490;2022-11-20T03:14:24;89531.41;;;16.46;57.30
10366;BME280;5229;41.820;23.490;2022-11-20T03:16:52;89540.22;;;16.38;57.89
10366;BME280;5229;41.820;23.490;2022-11-20T03:19:19;89537.09;;;16.32;57.19
10366;BME280;5229;41.820;23.490;2022-11-20T03:21:45;89539.25;;;16.27;58.25
10366;BME280;5229;41.820;23.490;2022-11-20T03:24:13;89535.56;;;16.28;57.66
10366;BME280;5229;41.820;23.490;2022-11-20T03:26:40;89537.81;;;16.29;58.27
10366;BME280;5229;41.820;23.490;2022-11-20T03:29:07;89543.06;;;16.29;58.59
10366;BME280;5229;41.820;23.490;2022-11-20T03:31:36;89551.31;;;16.31;58.20
10366;BME280;5229;41.820;23.490;2022-11-20T03:34:07;89571.53;;;16.34;58.51
10366;BME280;5229;41.820;23.490;2022-11-20T03:36:34;89549.78;;;16.30;57.18
10366;BME280;5229;41.820;23.490;2022-11-20T03:39:03;89560.38;;;16.37;56.31
10366;BME280;5229;41.820;23.490;2022-11-20T03:41:31;89555.69;;;16.46;57.02
10366;BME280;5229;41.820;23.490;2022-11-20T03:44:03;89545.72;;;16.52;56.95
10366;BME280;5229;41.820;23.490;2022-11-20T03:46:30;89562.16;;;16.52;57.16
10366;BME280;5229;41.820;23.490;2022-11-20T03:48:57;89556.19;;;16.52;57.72
10366;BME280;5229;41.820;23.490;2022-11-20T03:51:26;89549.84;;;16.53;57.30
10366;BME280;5229;41.820;23.490;2022-11-20T03:53:57;89541.63;;;16.54;56.96
10366;BME280;5229;41.820;23.490;2022-11-20T03:56:26;89542.72;;;16.53;57.36
10366;BME280;5229;41.820;23.490;2022-11-20T03:58:53;89542.69;;;16.50;56.90
10366;BME280;5229;41.820;23.490;2022-11-20T04:01:22;89547.09;;;16.46;57.08
10366;BME280;5229;41.820;23.490;2022-11-20T04:03:52;89535.81;;;16.42;57.02
10366;BME280;5229;41.820;23.490;2022-11-20T04:06:20;89541.06;;;16.42;56.46
10366;BME280;5229;41.820;23.490;2022-11-20T04:08:49;89555.97;;;16.41;56.48
10366;BME280;5229;41.820;23.490;2022-11-20T04:11:18;89551.06;;;16.40;56.47
10366;BME280;5229;41.820;23.490;2022-11-20T04:13:47;89541.38;;;16.40;55.71
10366;BME280;5229;41.820;23.490;2022-11-20T04:16:14;89534.72;;;16.43;55.71
10366;BME280;5229;41.820;23.490;2022-11-20T04:18:41;89540.00;;;16.46;55.68
10366;BME280;5229;41.820;23.490;2022-11-20T04:21:09;89532.56;;;16.48;55.58
10366;BME280;5229;41.820;23.490;2022-11-20T04:23:36;89542.00;;;16.53;55.33
10366;BME280;5229;41.820;23.490;2022-11-20T04:26:06;89540.19;;;16.57;55.06
10366;BME280;5229;41.820;23.490;2022-11-20T04:28:33;89539.06;;;16.58;55.35
10366;BME280;5229;41.820;23.490;2022-11-20T04:31:03;89537.22;;;16.58;55.42
10366;BME280;5229;41.820;23.490;2022-11-20T04:33:30;89545.00;;;16.55;55.36
10366;BME280;5229;41.820;23.490;2022-11-20T04:36:00;89547.97;;;16.53;55.80
10366;BME280;5229;41.820;23.490;2022-11-20T04:38:28;89551.00;;;16.55;55.77
10366;BME280;5229;41.820;23.490;2022-11-20T04:40:58;89559.19;;;16.54;55.96
10366;BME280;5229;41.820;23.490;2022-11-20T04:43:27;89563.66;;;16.53;56.01
10366;BME280;5229;41.820;23.490;2022-11-20T04:45:55;89552.00;;;16.47;56.46
10366;BME280;5229;41.820;23.490;2022-11-20T04:48:22;89553.81;;;16.43;56.38
10366;BME280;5229;41.820;23.490;2022-11-20T04:50:49;89554.19;;;16.45;56.60
10366;BME280;5229;41.820;23.490;2022-11-20T04:53:16;89554.59;;;16.47;56.93
10366;BME280;5229;41.820;23.490;2022-11-20T04:55:43;89548.34;;;16.52;56.82
10366;BME280;5229;41.820;23.490;2022-11-20T04:58:10;89547.97;;;16.53;56.51
10366;BME280;5229;41.820;23.490;2022-11-20T05:00:39;89546.88;;;16.54;56.80
10366;BME280;5229;41.820;23.490;2022-11-20T05:03:06;89550.88;;;16.48;57.67
10366;BME280;5229;41.820;23.490;2022-11-20T05:05:33;89551.38;;;16.35;57.63
10366;BME280;5229;41.820;23.490;2022-11-20T05:08:00;89540.09;;;16.31;57.75
10366;BME280;5229;41.820;23.490;2022-11-20T05:10:27;89544.56;;;16.30;57.61
10366;BME280;5229;41.820;23.490;2022-11-20T05:12:54;89532.25;;;16.31;58.37
10366;BME280;5229;41.820;23.490;2022-11-20T05:15:21;89528.09;;;16.30;58.26
10366;BME280;5229;41.820;23.490;2022-11-20T05:17:50;89516.81;;;16.26;58.24
10366;BME280;5229;41.820;23.490;2022-11-20T05:20:18;89523.44;;;16.20;58.91
10366;BME280;5229;41.820;23.490;2022-11-20T05:22:45;89528.63;;;16.16;59.08
10366;BME280;5229;41.820;23.490;2022-11-20T05:25:12;89520.19;;;16.04;58.95
10366;BME280;5229;41.820;23.490;2022-11-20T05:27:38;89533.47;;;15.95;59.79
10366;BME280;5229;41.820;23.490;2022-11-20T05:30:06;89528.88;;;15.89;59.72
10366;BME280;5229;41.820;23.490;2022-11-20T05:32:33;89540.72;;;15.83;59.85
10366;BME280;5229;41.820;23.490;2022-11-20T05:35:02;89553.44;;;15.84;60.38
10366;BME280;5229;41.820;23.490;2022-11-20T05:37:29;89548.47;;;15.79;60.63
10366;BME280;5229;41.820;23.490;2022-11-20T05:39:55;89551.38;;;15.74;60.61
10366;BME280;5229;41.820;23.490;2022-11-20T05:42:22;89557.97;;;15.68;61.37
10366;BME280;5229;41.820;23.490;2022-11-20T05:44:59;89562.03;;;15.66;61.56
10366;BME280;5229;41.820;23.490;2022-11-20T05:47:27;89563.91;;;15.65;61.31
10366;BME280;5229;41.820;23.490;2022-11-20T05:49:54;89585.91;;;15.64;61.29
10366;BME280;5229;41.820;23.490;2022-11-20T05:52:22;89590.41;;;15.64;61.57
10366;BME280;5229;41.820;23.490;2022-11-20T05:54:49;89589.63;;;15.63;61.30
10366;BME280;5229;41.820;23.490;2022-11-20T05:57:16;89584.41;;;15.63;61.97
10366;BME280;5229;41.820;23.490;2022-11-20T05:59:43;89605.75;;;15.65;62.02
10366;BME280;5229;41.820;23.490;2022-11-20T06:02:10;89591.56;;;15.66;62.04
10366;BME280;5229;41.820;23.490;2022-11-20T06:04:37;89590.44;;;15.67;61.75
10366;BME280;5229;41.820;23.490;2022-11-20T06:07:05;89607.63;;;15.68;62.05
10366;BME280;5229;41.820;23.490;2022-11-20T06:09:33;89604.00;;;15.73;62.04
10366;BME280;5229;41.820;23.490;2022-11-20T06:12:00;89592.03;;;15.72;62.30
10366;BME280;5229;41.820;23.490;2022-11-20T06:14:27;89593.16;;;15.71;62.00
10366;BME280;5229;41.820;23.490;2022-11-20T06:16:54;89597.31;;;15.75;62.29
10366;BME280;5229;41.820;23.490;2022-11-20T06:19:21;89592.66;;;15.84;62.03
10366;BME280;5229;41.820;23.490;2022-11-20T06:21:48;89592.84;;;15.95;61.59
10366;BME280;5229;41.820;23.490;2022-11-20T06:24:15;89595.25;;;16.03;61.60
10366;BME280;5229;41.820;23.490;2022-11-20T06:26:44;89600.72;;;16.14;61.80
10366;BME280;5229;41.820;23.490;2022-11-20T06:29:11;89593.03;;;16.24;61.50
10366;BME280;5229;41.820;23.490;2022-11-20T06:31:38;89600.03;;;16.39;61.20
10366;BME280;5229;41.820;23.490;2022-11-20T06:34:05;89584.56;;;16.50;61.45
10366;BME280;5229;41.820;23.490;2022-11-20T06:36:32;89574.22;;;16.57;60.84
10366;BME280;5229;41.820;23.490;2022-11-20T06:39:00;89600.03;;;16.58;61.27
10366;BME280;5229;41.820;23.490;2022-11-20T06:41:27;89607.09;;;16.54;60.93
10366;BME280;5229;41.820;23.490;2022-11-20T06:43:55;89588.41;;;16.56;61.29
10366;BME280;5229;41.820;23.490;2022-11-20T06:46:22;89578.69;;;16.56;61.44
10366;BME280;5229;41.820;23.490;2022-11-20T06:48:49;89587.66;;;16.55;60.88
10366;BME280;5229;41.820;23.490;2022-11-20T06:51:17;89589.78;;;16.50;61.21
10366;BME280;5229;41.820;23.490;2022-11-20T06:53:44;89603.91;;;16.45;61.45
10366;BME280;5229;41.820;23.490;2022-11-20T06:56:10;89583.41;;;16.47;61.32
10366;BME280;5229;41.820;23.490;2022-11-20T06:58:37;89583.78;;;16.49;61.68
10366;BME280;5229;41.820;23.490;2022-11-20T07:01:08;89584.59;;;16.53;61.38
10366;BME280;5229;41.820;23.490;2022-11-20T07:03:36;89603.00;;;16.57;61.39
10366;BME280;5229;41.820;23.490;2022-11-20T07:06:04;89600.50;;;16.64;61.70
10366;BME280;5229;41.820;23.490;2022-11-20T07:08:32;89597.53;;;16.65;61.73
10366;BME280;5229;41.820;23.490;2022-11-20T07:10:59;89609.53;;;16.66;61.58
10366;BME280;5229;41.820;23.490;2022-11-20T07:13:27;89620.69;;;16.63;61.66
10366;BME280;5229;41.820;23.490;2022-11-20T07:15:54;89609.81;;;16.61;61.97
10366;BME280;5229;41.820;23.490;2022-11-20T07:18:23;89601.19;;;16.61;61.46
10366;BME280;5229;41.820;23.490;2022-11-20T07:20:49;89614.75;;;16.66;61.86
10366;BME280;5229;41.820;23.490;2022-11-20T07:23:16;89615.81;;;16.84;61.19
10366;BME280;5229;41.820;23.490;2022-11-20T07:25:43;89612.72;;;17.01;60.42
10366;BME280;5229;41.820;23.490;2022-11-20T07:28:10;89618.50;;;17.10;60.53
10366;BME280;5229;41.820;23.490;2022-11-20T07:30:37;89629.69;;;17.11;60.40
10366;BME280;5229;41.820;23.490;2022-11-20T07:33:04;89643.09;;;17.06;60.35
10366;BME280;5229;41.820;23.490;2022-11-20T07:35:32;89633.31;;;17.03;60.31
10366;BME280;5229;41.820;23.490;2022-11-20T07:37:59;89618.19;;;16.93;60.79
10366;BME280;5229;41.820;23.490;2022-11-20T07:40:26;89634.56;;;16.86;61.10
10366;BME280;5229;41.820;23.490;2022-11-20T07:42:54;89624.81;;;16.87;60.83
10366;BME280;5229;41.820;23.490;2022-11-20T07:45:23;89626.00;;;16.89;61.46
10366;BME280;5229;41.820;23.490;2022-11-20T07:47:50;89642.13;;;16.91;61.10
10366;BME280;5229;41.820;23.490;2022-11-20T07:50:17;89653.41;;;16.95;60.92
10366;BME280;5229;41.820;23.490;2022-11-20T07:52:46;89631.88;;;17.05;61.21
10366;BME280;5229;41.820;23.490;2022-11-20T07:55:13;89635.72;;;17.11;60.92
10366;BME280;5229;41.820;23.490;2022-11-20T07:57:41;89632.50;;;17.21;61.22
10366;BME280;5229;41.820;23.490;2022-11-20T08:00:09;89619.16;;;17.30;60.47
10366;BME280;5229;41.820;23.490;2022-11-20T08:02:37;89631.03;;;17.47;59.94
10366;BME280;5229;41.820;23.490;2022-11-20T08:05:05;89605.38;;;17.59;59.79
10366;BME280;5229;41.820;23.490;2022-11-20T08:07:35;89608.91;;;17.74;59.81
10366;BME280;5229;41.820;23.490;2022-11-20T08:10:05;89611.38;;;17.89;59.42
10366;BME280;5229;41.820;23.490;2022-11-20T08:12:32;89617.50;;;18.00;59.33
10366;BME280;5229;41.820;23.490;2022-11-20T08:15:19;89634.81;;;18.05;59.14
10366;BME280;5229;41.820;23.490;2022-11-20T08:17:46;89645.25;;;18.01;59.18
10366;BME280;5229;41.820;23.490;2022-11-20T08:20:12;89628.34;;;17.99;59.51
10366;BME280;5229;41.820;23.490;2022-11-20T08:22:39;89609.97;;;17.99;59.58
10366;BME280;5229;41.820;23.490;2022-11-20T08:25:08;89638.09;;;17.98;59.08
10366;BME280;5229;41.820;23.490;2022-11-20T08:27:35;89653.31;;;17.86;59.56
10366;BME280;5229;41.820;23.490;2022-11-20T08:30:02;89640.34;;;17.70;59.92
10366;BME280;5229;41.820;23.490;2022-11-20T08:32:29;89638.03;;;17.65;60.23
10366;BME280;5229;41.820;23.490;2022-11-20T08:34:56;89624.88;;;17.62;60.88
10366;BME280;5229;41.820;23.490;2022-11-20T08:37:23;89629.00;;;17.63;60.99
10366;BME280;5229;41.820;23.490;2022-11-20T08:39:50;89622.94;;;17.59;60.68
10366;BME280;5229;41.820;23.490;2022-11-20T08:42:20;89626.19;;;17.48;61.29
10366;BME280;5229;41.820;23.490;2022-11-20T08:44:47;89636.84;;;17.36;61.62
10366;BME280;5229;41.820;23.490;2022-11-20T08:47:13;89624.63;;;17.21;61.76
10366;BME280;5229;41.820;23.490;2022-11-20T08:49:40;89624.41;;;17.07;63.11
10366;BME280;5229;41.820;23.490;2022-11-20T08:52:07;89610.78;;;16.98;63.06
10366;BME280;5229;41.820;23.490;2022-11-20T08:54:34;89607.78;;;16.96;63.48
10366;BME280;5229;41.820;23.490;2022-11-20T08:57:01;89609.28;;;16.97;63.91
10366;BME280;5229;41.820;23.490;2022-11-20T08:59:29;89608.19;;;16.98;63.83
10366;BME280;5229;41.820;23.490;2022-11-20T09:01:56;89610.50;;;17.03;64.29
10366;BME280;5229;41.820;23.490;2022-11-20T09:04:23;89612.59;;;17.17;64.10
10366;BME280;5229;41.820;23.490;2022-11-20T09:06:50;89604.59;;;17.32;63.61
10366;BME280;5229;41.820;23.490;2022-11-20T09:09:17;89613.41;;;17.47;63.89
10366;BME280;5229;41.820;23.490;2022-11-20T09:11:44;89612.47;;;17.59;63.91
10366;BME280;5229;41.820;23.490;2022-11-20T09:14:11;89620.13;;;17.71;63.30
10366;BME280;5229;41.820;23.490;2022-11-20T09:16:39;89617.63;;;17.81;62.88
10366;BME280;5229;41.820;23.490;2022-11-20T09:19:06;89626.66;;;17.84;62.86
10366;BME280;5229;41.820;23.490;2022-11-20T09:21:33;89618.84;;;17.87;62.76
10366;BME280;5229;41.820;23.490;2022-11-20T09:24:00;89614.75;;;17.90;62.46
10366;BME280;5229;41.820;23.490;2022-11-20T09:26:27;89614.50;;;17.98;62.31
10366;BME280;5229;41.820;23.490;2022-11-20T09:28:54;89608.19;;;18.03;62.26
10366;BME280;5229;41.820;23.490;2022-11-20T09:31:23;89613.81;;;18.05;62.59
10366;BME280;5229;41.820;23.490;2022-11-20T09:33:52;89613.00;;;18.01;62.90
10366;BME280;5229;41.820;23.490;2022-11-20T09:36:19;89624.22;;;17.98;63.09
10366;BME280;5229;41.820;23.490;2022-11-20T09:38:46;89610.63;;;17.89;63.19
10366;BME280;5229;41.820;23.490;2022-11-20T09:44:31;89613.50;;;17.80;63.24
10366;BME280;5229;41.820;23.490;2022-11-20T09:47:02;89608.25;;;17.80;62.96
10366;BME280;5229;41.820;23.490;2022-11-20T09:49:49;89588.34;;;17.76;63.09
10366;BME280;5229;41.820;23.490;2022-11-20T09:52:27;89595.84;;;17.77;63.14
10366;BME280;5229;41.820;23.490;2022-11-20T09:54:58;89604.84;;;17.76;62.58
10366;BME280;5229;41.820;23.490;2022-11-20T09:57:33;89598.84;;;17.76;62.96
10366;BME280;5229;41.820;23.490;2022-11-20T10:00:06;89606.00;;;17.79;62.38
10366;BME280;5229;41.820;23.490;2022-11-20T10:02:40;89598.88;;;17.79;62.78
10366;BME280;5229;41.820;23.490;2022-11-20T10:05:15;89608.53;;;17.72;62.84
10366;BME280;5229;41.820;23.490;2022-11-20T10:07:47;89601.59;;;17.57;63.07
10366;BME280;5229;41.820;23.490;2022-11-20T10:10:16;89593.72;;;17.57;63.58
10366;BME280;5229;41.820;23.490;2022-11-20T10:12:57;89584.81;;;17.65;63.97
10366;BME280;5229;41.820;23.490;2022-11-20T10:15:33;89592.09;;;17.75;63.44
10366;BME280;5229;41.820;23.490;2022-11-20T10:18:22;89584.22;;;17.75;63.02
10366;BME280;5229;41.820;23.490;2022-11-20T10:20:58;89584.22;;;17.75;63.19
10366;BME280;5229;41.820;23.490;2022-11-20T10:23:50;89589.47;;;17.75;63.35
10366;BME280;5229;41.820;23.490;2022-11-20T10:26:31;89577.94;;;17.83;63.62
10366;BME280;5229;41.820;23.490;2022-11-20T10:29:09;89578.81;;;17.94;63.29
10366;BME280;5229;41.820;23.490;2022-11-20T10:31:39;89573.25;;;17.99;63.01
10366;BME280;5229;41.820;23.490;2022-11-20T10:34:15;89578.09;;;17.97;62.77
10366;BME280;5229;41.820;23.490;2022-11-20T10:36:48;89567.19;;;17.95;62.72
10366;BME280;5229;41.820;23.490;2022-11-20T10:39:20;89571.56;;;17.84;62.87
10366;BME280;5229;41.820;23.490;2022-11-20T10:41:50;89567.78;;;17.78;63.07
10366;BME280;5229;41.820;23.490;2022-11-20T10:44:20;89558.00;;;17.75;63.22
10366;BME280;5229;41.820;23.490;2022-11-20T10:47:02;89569.19;;;17.72;63.36
10366;BME280;5229;41.820;23.490;2022-11-20T10:49:30;89557.47;;;17.62;63.00
10366;BME280;5229;41.820;23.490;2022-11-20T10:52:08;89559.19;;;17.51;63.69
10366;BME280;5229;41.820;23.490;2022-11-20T10:54:43;89558.72;;;17.45;63.74
10366;BME280;5229;41.820;23.490;2022-11-20T10:57:21;89552.97;;;17.36;63.93
10366;BME280;5229;41.820;23.490;2022-11-20T11:00:04;89543.06;;;17.23;64.21
10366;BME280;5229;41.820;23.490;2022-11-20T11:02:34;89548.94;;;17.16;63.89
10366;BME280;5229;41.820;23.490;2022-11-20T11:05:11;89530.84;;;17.08;64.31
10366;BME280;5229;41.820;23.490;2022-11-20T11:07:44;89529.31;;;17.03;64.63
10366;BME280;5229;41.820;23.490;2022-11-20T11:10:16;89538.66;;;17.04;64.34
10366;BME280;5229;41.820;23.490;2022-11-20T11:12:46;89547.22;;;17.01;64.52
10366;BME280;5229;41.820;23.490;2022-11-20T11:15:24;89553.50;;;16.97;64.38
10366;BME280;5229;41.820;23.490;2022-11-20T11:17:51;89545.91;;;16.88;64.70
10366;BME280;5229;41.820;23.490;2022-11-20T11:20:19;89553.53;;;16.74;64.82
10366;BME280;5229;41.820;23.490;2022-11-20T11:22:49;89551.81;;;16.59;65.16
10366;BME280;5229;41.820;23.490;2022-11-20T11:25:35;89551.91;;;16.44;66.07
10366;BME280;5229;41.820;23.490;2022-11-20T11:28:04;89543.19;;;16.36;65.94
10366;BME280;5229;41.820;23.490;2022-11-20T11:30:41;89535.56;;;16.28;66.00
10366;BME280;5229;41.820;23.490;2022-11-20T11:33:11;89537.81;;;16.29;66.16
10366;BME280;5229;41.820;23.490;2022-11-20T11:35:44;89540.03;;;16.27;66.17
10366;BME280;5229;41.820;23.490;2022-11-20T11:38:16;89533.97;;;16.23;66.28
10366;BME280;5229;41.820;23.490;2022-11-20T11:40:43;89543.69;;;16.23;66.45
10366;BME280;5229;41.820;23.490;2022-11-20T11:43:18;89549.00;;;16.26;66.78
10366;BME280;5229;41.820;23.490;2022-11-20T11:46:00;89546.88;;;16.35;67.14
10366;BME280;5229;41.820;23.490;2022-11-20T11:48:27;89549.56;;;16.39;67.36
10366;BME280;5229;41.820;23.490;2022-11-20T11:50:53;89552.25;;;16.42;67.46
10366;BME280;5229;41.820;23.490;2022-11-20T11:53:23;89551.84;;;16.40;67.36
10366;BME280;5229;41.820;23.490;2022-11-20T11:55:56;89558.94;;;16.40;67.30
10366;BME280;5229;41.820;23.490;2022-11-20T11:58:34;89561.19;;;16.41;67.22
10366;BME280;5229;41.820;23.490;2022-11-20T12:04:03;89575.94;;;16.49;67.92
10366;BME280;5229;41.820;23.490;2022-11-20T12:06:32;89574.84;;;16.50;67.71
10366;BME280;5229;41.820;23.490;2022-11-20T12:09:04;89580.78;;;16.47;68.20
10366;BME280;5229;41.820;23.490;2022-11-20T12:11:36;89582.13;;;16.41;68.54
10366;BME280;5229;41.820;23.490;2022-11-20T12:14:11;89585.09;;;16.40;68.34
10366;BME280;5229;41.820;23.490;2022-11-20T12:16:41;89586.56;;;16.37;68.94
10366;BME280;5229;41.820;23.490;2022-11-20T12:19:10;89585.31;;;16.31;68.62
10366;BME280;5229;41.820;23.490;2022-11-20T12:21:46;89584.84;;;16.26;69.33
10366;BME280;5229;41.820;23.490;2022-11-20T12:24:37;89584.81;;;16.22;69.26
10366;BME280;5229;41.820;23.490;2022-11-20T12:27:27;89588.09;;;16.19;69.43
10366;BME280;5229;41.820;23.490;2022-11-20T12:30:02;89585.50;;;16.19;69.37
10366;BME280;5229;41.820;23.490;2022-11-20T12:35:44;89595.94;;;16.19;69.50
10366;BME280;5229;41.820;23.490;2022-11-20T12:38:42;89603.72;;;16.16;69.67
10366;BME280;5229;41.820;23.490;2022-11-20T12:41:22;89605.31;;;16.20;69.56
10366;BME280;5229;41.820;23.490;2022-11-20T12:44:13;89598.28;;;16.24;69.08
10366;BME280;5229;41.820;23.490;2022-11-20T12:47:11;89602.69;;;16.20;69.21
10366;BME280;5229;41.820;23.490;2022-11-20T12:49:45;89597.88;;;16.22;68.83
10366;BME280;5229;41.820;23.490;2022-11-20T12:52:29;89597.47;;;16.20;69.00
10366;BME280;5229;41.820;23.490;2022-11-20T12:55:16;89591.13;;;16.21;68.98
10366;BME280;5229;41.820;23.490;2022-11-20T12:57:50;89579.56;;;16.22;69.34
10366;BME280;5229;41.820;23.490;2022-11-20T13:00:20;89576.53;;;16.20;69.60
10366;BME280;5229;41.820;23.490;2022-11-20T13:03:27;89568.28;;;16.18;69.72
10366;BME280;5229;41.820;23.490;2022-11-20T13:06:06;89569.84;;;16.23;69.18
10366;BME280;5229;41.820;23.490;2022-11-20T13:08:39;89561.94;;;16.19;69.00
10366;BME280;5229;41.820;23.490;2022-11-20T13:11:12;89562.28;;;16.18;68.88
10366;BME280;5229;41.820;23.490;2022-11-20T13:14:07;89551.06;;;16.17;68.43
10366;BME280;5229;41.820;23.490;2022-11-20T13:16:38;89548.91;;;16.23;67.92
10366;BME280;5229;41.820;23.490;2022-11-20T13:19:11;89551.19;;;16.24;67.98
10366;BME280;5229;41.820;23.490;2022-11-20T13:21:41;89548.91;;;16.23;68.23
10366;BME280;5229;41.820;23.490;2022-11-20T13:24:22;89536.88;;;16.18;68.23